createdAt,value
2022-08-26T00:02:12.749Z,0.80
2022-08-26T00:04:42.501Z,0.77
2022-08-26T00:07:10.819Z,0.60
2022-08-26T00:09:40.347Z,0.60
2022-08-26T00:12:09.566Z,0.90
2022-08-26T00:14:40.889Z,0.70
2022-08-26T00:17:10.065Z,0.70
2022-08-26T00:19:38.107Z,0.73
2022-08-26T00:22:07.518Z,0.73
2022-08-26T00:24:35.837Z,0.90
2022-08-26T00:27:03.789Z,0.73
2022-08-26T00:29:35.573Z,0.88
2022-08-26T00:32:06.813Z,0.50
2022-08-26T00:34:35.838Z,0.50
2022-08-26T00:37:03.841Z,0.63
2022-08-26T00:39:38.434Z,0.70
2022-08-26T00:42:06.742Z,0.90
2022-08-26T00:44:34.933Z,0.50
2022-08-26T00:47:08.362Z,0.60
2022-08-26T00:49:40.573Z,0.60
2022-08-26T00:52:12.058Z,0.60
2022-08-26T00:54:47.094Z,0.60
2022-08-26T00:57:18.123Z,0.70
2022-08-26T00:59:47.765Z,0.60
2022-08-26T01:02:20.314Z,0.60
2022-08-26T01:04:55.540Z,0.70
2022-08-26T01:07:25.560Z,0.60
2022-08-26T01:09:56.697Z,0.60
2022-08-26T01:12:26.127Z,0.50
2022-08-26T01:14:54.555Z,0.60
2022-08-26T01:17:23.135Z,0.60
2022-08-26T01:19:53.665Z,0.60
2022-08-26T01:22:28.637Z,0.77
2022-08-26T01:24:59.910Z,1.00
2022-08-26T01:27:32.682Z,0.70
2022-08-26T01:30:02.924Z,0.85
2022-08-26T01:32:34.234Z,0.63
2022-08-26T01:35:03.479Z,0.60
2022-08-26T01:37:36.954Z,0.83
2022-08-26T01:40:14.155Z,0.70
2022-08-26T01:42:49.272Z,0.60
2022-08-26T01:45:21.443Z,0.90
2022-08-26T01:47:57.096Z,0.70
2022-08-26T01:50:30.605Z,0.70
2022-08-26T01:53:02.043Z,0.50
2022-08-26T01:55:33.391Z,0.70
2022-08-26T01:58:07.663Z,0.63
2022-08-26T02:00:36.843Z,0.70
2022-08-26T02:03:22.098Z,0.90
2022-08-26T02:05:57.151Z,0.60
2022-08-26T02:08:28.218Z,0.60
2022-08-26T02:10:57.825Z,0.80
2022-08-26T02:13:30.192Z,0.50
2022-08-26T02:15:59.088Z,0.52
2022-08-26T02:18:29.496Z,0.67
2022-08-26T02:20:58.280Z,0.67
2022-08-26T02:23:29.122Z,0.73
2022-08-26T02:26:04.870Z,0.60
2022-08-26T02:28:38.606Z,0.70
2022-08-26T02:31:07.998Z,0.60
2022-08-26T02:33:36.582Z,0.70
2022-08-26T02:36:05.590Z,0.90
2022-08-26T02:38:36.252Z,0.67
2022-08-26T02:41:08.085Z,0.60
2022-08-26T02:43:36.886Z,0.60
2022-08-26T02:46:05.969Z,0.40
2022-08-26T02:48:34.481Z,0.80
2022-08-26T02:51:04.648Z,0.60
2022-08-26T02:53:35.660Z,0.60
2022-08-26T02:56:04.714Z,0.63
2022-08-26T02:58:34.931Z,0.70
2022-08-26T03:01:04.930Z,0.60
2022-08-26T03:03:33.991Z,0.63
2022-08-26T03:06:02.264Z,0.23
2022-08-26T03:08:30.340Z,0.60
2022-08-26T03:11:01.583Z,0.70
2022-08-26T03:13:30.744Z,1.17
2022-08-26T03:16:02.085Z,0.80
2022-08-26T03:18:30.617Z,0.80
2022-08-26T03:20:58.577Z,0.70
2022-08-26T03:23:26.504Z,0.50
2022-08-26T03:25:54.960Z,0.63
2022-08-26T03:28:24.431Z,0.50
2022-08-26T03:30:54.349Z,0.60
2022-08-26T03:33:23.880Z,0.80
2022-08-26T03:35:52.621Z,0.93
2022-08-26T03:38:27.949Z,0.75
2022-08-26T03:40:57.734Z,0.70
2022-08-26T03:43:27.173Z,0.50
2022-08-26T03:45:56.137Z,0.53
2022-08-26T03:48:28.569Z,0.50
2022-08-26T03:51:12.933Z,0.60
2022-08-26T03:53:43.475Z,0.60
2022-08-26T03:56:15.456Z,0.40
2022-08-26T03:58:51.035Z,0.63
2022-08-26T04:01:20.224Z,0.45
2022-08-26T04:04:04.071Z,0.53
2022-08-26T04:06:44.914Z,0.60
2022-08-26T04:09:19.984Z,0.80
2022-08-26T04:11:50.750Z,0.60
2022-08-26T04:14:25.466Z,0.80
2022-08-26T04:16:56.997Z,1.00
2022-08-26T04:19:32.567Z,0.60
2022-08-26T04:22:01.896Z,0.60
2022-08-26T04:24:29.838Z,0.88
2022-08-26T04:27:04.068Z,0.70
2022-08-26T04:29:33.464Z,0.77
2022-08-26T04:32:03.499Z,0.93
2022-08-26T04:34:33.650Z,0.60
2022-08-26T04:37:02.084Z,1.00
2022-08-26T04:39:30.999Z,0.70
2022-08-26T04:42:01.687Z,0.60
2022-08-26T04:44:31.872Z,0.73
2022-08-26T04:47:03.055Z,0.90
2022-08-26T04:49:35.344Z,0.87
2022-08-26T04:52:04.125Z,0.90
2022-08-26T04:54:32.945Z,0.50
2022-08-26T04:57:01.047Z,0.60
2022-08-26T04:59:29.272Z,0.60
2022-08-26T05:01:59.575Z,0.60
2022-08-26T05:04:27.727Z,0.70
2022-08-26T05:07:03.120Z,0.73
2022-08-26T05:09:31.640Z,0.60
2022-08-26T05:12:06.385Z,0.60
2022-08-26T05:14:34.828Z,0.70
2022-08-26T05:17:03.213Z,0.70
2022-08-26T05:19:32.847Z,0.60
2022-08-26T05:22:05.673Z,0.40
2022-08-26T05:24:33.918Z,0.77
2022-08-26T05:27:03.226Z,0.40
2022-08-26T05:29:39.434Z,0.70
2022-08-26T05:32:08.178Z,0.60
2022-08-26T05:34:39.427Z,0.50
2022-08-26T05:37:13.663Z,0.50
2022-08-26T05:39:43.559Z,0.70
2022-08-26T05:42:20.067Z,0.70
2022-08-26T05:44:58.162Z,0.50
2022-08-26T05:47:27.224Z,0.50
2022-08-26T05:50:26.197Z,0.60
2022-08-26T05:52:59.723Z,0.50
2022-08-26T05:55:38.580Z,0.50
2022-08-26T05:58:10.292Z,0.57
2022-08-26T06:00:45.563Z,0.70
2022-08-26T06:03:18.735Z,0.60
2022-08-26T06:06:01.151Z,0.53
2022-08-26T06:08:41.206Z,0.40
2022-08-26T06:11:18.524Z,0.33
2022-08-26T06:14:03.838Z,0.40
2022-08-26T06:16:35.147Z,0.67
2022-08-26T06:22:28.738Z,0.40
2022-08-26T06:25:15.340Z,0.50
2022-08-26T06:27:43.506Z,0.40
2022-08-26T06:30:12.632Z,0.40
2022-08-26T06:32:43.438Z,0.40
2022-08-26T06:35:12.180Z,0.50
2022-08-26T06:37:42.855Z,0.40
2022-08-26T06:40:13.357Z,0.30
2022-08-26T06:42:41.399Z,0.40
2022-08-26T06:45:10.292Z,0.32
2022-08-26T06:47:39.036Z,0.30
2022-08-26T06:50:07.850Z,0.43
2022-08-26T06:52:36.032Z,0.60
2022-08-26T06:55:04.098Z,0.30
2022-08-26T06:57:34.867Z,0.47
2022-08-26T07:00:07.673Z,0.30
2022-08-26T07:02:35.981Z,0.40
2022-08-26T07:05:04.222Z,0.40
2022-08-26T07:07:32.412Z,0.40
2022-08-26T07:10:00.328Z,0.50
2022-08-26T07:12:29.390Z,0.40
2022-08-26T07:15:00.451Z,0.60
2022-08-26T07:17:28.274Z,0.50
2022-08-26T07:19:56.433Z,0.40
2022-08-26T07:22:24.460Z,0.40
2022-08-26T07:24:52.486Z,0.40
2022-08-26T07:27:20.476Z,0.40
2022-08-26T07:29:48.986Z,0.30
2022-08-26T07:32:22.832Z,0.60
2022-08-26T07:34:51.529Z,0.47
2022-08-26T07:37:19.619Z,0.70
2022-08-26T07:39:48.328Z,0.30
2022-08-26T07:42:19.762Z,0.40
2022-08-26T07:44:48.351Z,0.40
2022-08-26T07:47:24.951Z,0.50
2022-08-26T07:49:57.380Z,0.47
2022-08-26T07:52:27.489Z,0.50
2022-08-26T07:54:55.953Z,0.47
2022-08-26T07:57:24.258Z,0.57
2022-08-26T07:59:52.393Z,0.33
2022-08-26T08:02:23.243Z,0.60
2022-08-26T08:04:51.735Z,0.30
2022-08-26T08:07:21.141Z,0.40
2022-08-26T08:09:53.758Z,0.37
2022-08-26T08:12:21.918Z,0.40
2022-08-26T08:14:50.248Z,0.50
2022-08-26T08:17:18.092Z,0.40
2022-08-26T08:19:47.172Z,0.40
2022-08-26T08:22:17.989Z,0.40
2022-08-26T08:24:49.990Z,0.40
2022-08-26T08:27:23.654Z,0.27
2022-08-26T08:29:57.418Z,0.40
2022-08-26T08:32:25.364Z,0.37
2022-08-26T08:34:53.482Z,0.50
2022-08-26T08:37:21.318Z,0.40
2022-08-26T08:39:50.893Z,0.40
2022-08-26T08:42:37.123Z,0.60
2022-08-26T08:45:09.002Z,0.40
2022-08-26T08:47:42.097Z,0.60
2022-08-26T08:50:20.702Z,0.47
2022-08-26T08:52:53.432Z,0.83
2022-08-26T08:55:26.221Z,0.50
2022-08-26T08:58:03.802Z,0.70
2022-08-26T09:00:46.907Z,0.40
2022-08-26T09:03:31.081Z,0.47
2022-08-26T09:06:02.297Z,0.60
2022-08-26T09:08:35.812Z,0.50
2022-08-26T09:11:05.469Z,0.90
2022-08-26T09:13:35.390Z,0.40
2022-08-26T09:16:08.395Z,0.40
2022-08-26T09:19:05.885Z,0.40
2022-08-26T09:21:34.316Z,0.50
2022-08-26T09:24:02.436Z,0.60
2022-08-26T09:26:45.233Z,0.50
2022-08-26T09:29:24.669Z,0.60
2022-08-26T09:31:53.284Z,0.57
2022-08-26T09:34:23.889Z,0.60
2022-08-26T09:36:54.119Z,0.80
2022-08-26T09:39:33.249Z,0.50
2022-08-26T09:42:09.430Z,0.57
2022-08-26T09:44:54.632Z,0.50
2022-08-26T09:47:27.060Z,0.70
2022-08-26T09:50:04.555Z,0.77
2022-08-26T09:52:37.540Z,0.60
2022-08-26T09:55:14.279Z,0.73
2022-08-26T09:57:51.142Z,0.90
2022-08-26T10:00:32.150Z,0.80
2022-08-26T10:03:03.396Z,0.50
2022-08-26T10:05:38.379Z,0.93
2022-08-26T10:08:24.958Z,0.80
2022-08-26T10:10:53.953Z,0.57
2022-08-26T10:13:29.664Z,0.80
2022-08-26T10:16:04.688Z,0.80
2022-08-26T10:18:38.450Z,0.80
2022-08-26T10:21:11.001Z,0.70
2022-08-26T10:23:45.085Z,0.70
2022-08-26T10:26:17.760Z,0.60
2022-08-26T10:28:54.048Z,0.90
2022-08-26T10:31:29.050Z,0.88
2022-08-26T10:34:00.419Z,1.07
2022-08-26T10:37:14.785Z,0.70
2022-08-26T10:39:47.787Z,0.70
2022-08-26T10:42:24.191Z,0.80
2022-08-26T10:44:59.481Z,0.67
2022-08-26T10:47:35.328Z,0.57
2022-08-26T10:50:04.703Z,0.77
2022-08-26T10:52:46.792Z,0.70
2022-08-26T10:55:22.681Z,0.70
2022-08-26T10:57:58.690Z,0.50
2022-08-26T11:00:51.718Z,1.15
2022-08-26T11:03:33.401Z,0.57
2022-08-26T11:06:21.411Z,0.90
2022-08-26T11:08:50.787Z,0.63
2022-08-26T11:11:45.354Z,0.87
2022-08-26T11:14:53.052Z,0.90
2022-08-26T11:17:56.745Z,0.60
2022-08-26T11:20:37.409Z,0.80
2022-08-26T11:23:40.368Z,0.53
2022-08-26T11:26:20.393Z,0.87
2022-08-26T11:29:03.334Z,0.77
2022-08-26T11:31:54.946Z,0.80
2022-08-26T11:34:57.013Z,0.60
2022-08-26T11:37:33.357Z,0.70
2022-08-26T11:40:03.032Z,0.80
2022-08-26T11:42:38.510Z,1.20
2022-08-26T11:45:20.667Z,1.00
2022-08-26T11:47:49.400Z,0.80
2022-08-26T11:50:23.435Z,0.53
2022-08-26T11:52:56.209Z,0.63
2022-08-26T11:55:25.107Z,0.83
2022-08-26T11:57:56.805Z,1.20
2022-08-26T12:00:27.621Z,0.63
2022-08-26T12:03:02.766Z,0.50
2022-08-26T12:05:39.501Z,0.87
2022-08-26T12:08:14.619Z,0.70
2022-08-26T12:10:42.688Z,0.50
2022-08-26T12:13:21.384Z,0.70
2022-08-26T12:15:55.926Z,0.67
2022-08-26T12:18:29.547Z,0.73
2022-08-26T12:21:00.663Z,0.90
2022-08-26T12:23:44.070Z,1.10
2022-08-26T12:26:20.651Z,0.80
2022-08-26T12:28:51.960Z,1.95
2022-08-26T12:31:26.903Z,2.28
2022-08-26T12:33:55.979Z,1.17
2022-08-26T12:36:31.461Z,1.25
2022-08-26T12:39:08.387Z,2.10
2022-08-26T12:41:44.669Z,1.63
2022-08-26T12:44:38.111Z,1.98
2022-08-26T12:47:12.032Z,0.77
2022-08-26T12:49:42.568Z,0.70
2022-08-26T12:52:33.385Z,0.70
2022-08-26T12:55:03.194Z,0.60
2022-08-26T12:57:35.225Z,0.80
2022-08-26T13:00:27.147Z,0.70
2022-08-26T13:02:56.422Z,0.70
2022-08-26T13:05:27.923Z,0.88
2022-08-26T13:08:18.413Z,0.80
2022-08-26T13:10:49.789Z,0.70
2022-08-26T13:13:17.602Z,0.88
2022-08-26T13:15:45.836Z,0.80
2022-08-26T13:18:13.701Z,0.98
2022-08-26T13:20:44.859Z,0.77
2022-08-26T13:23:13.477Z,0.80
2022-08-26T13:25:42.826Z,0.70
2022-08-26T13:28:10.623Z,1.00
2022-08-26T13:30:38.452Z,0.93
2022-08-26T13:33:08.207Z,0.73
2022-08-26T13:35:37.015Z,1.00
2022-08-26T13:38:05.005Z,0.60
2022-08-26T13:40:34.901Z,0.88
2022-08-26T13:43:06.547Z,0.70
2022-08-26T13:45:34.477Z,0.70
2022-08-26T13:48:09.962Z,1.13
2022-08-26T13:50:38.251Z,0.65
2022-08-26T13:53:10.765Z,0.63
2022-08-26T13:55:41.125Z,0.80
2022-08-26T13:58:13.645Z,0.80
2022-08-26T14:00:43.419Z,1.20
2022-08-26T14:03:14.099Z,0.90
2022-08-26T14:05:44.748Z,1.10
2022-08-26T14:08:15.213Z,0.80
2022-08-26T14:10:45.732Z,1.10
2022-08-26T14:13:22.738Z,0.80
2022-08-26T14:15:54.133Z,0.90
2022-08-26T14:18:28.985Z,0.80
2022-08-26T14:20:56.933Z,0.82
2022-08-26T14:23:25.458Z,0.82
2022-08-26T14:25:54.914Z,1.00
2022-08-26T14:28:26.979Z,0.80
2022-08-26T14:30:59.336Z,0.93
2022-08-26T14:33:31.145Z,0.70
2022-08-26T14:36:14.634Z,0.77
2022-08-26T14:38:50.622Z,0.80
2022-08-26T14:41:20.013Z,0.73
2022-08-26T14:43:54.465Z,0.82
2022-08-26T14:46:22.458Z,0.70
2022-08-26T14:48:52.250Z,1.00
2022-08-26T14:51:25.012Z,0.70
2022-08-26T14:54:12.949Z,0.85
2022-08-26T14:56:46.558Z,0.73
2022-08-26T14:59:17.490Z,0.82
2022-08-26T15:01:45.715Z,0.85
2022-08-26T15:04:14.262Z,1.17
2022-08-26T15:06:48.463Z,0.80
2022-08-26T15:09:17.166Z,0.80
2022-08-26T15:11:48.527Z,0.73
2022-08-26T15:14:21.550Z,0.90
2022-08-26T15:16:50.614Z,0.73
2022-08-26T15:19:19.369Z,0.90
2022-08-26T15:21:47.776Z,0.73
2022-08-26T15:24:19.302Z,0.98
2022-08-26T15:26:48.024Z,1.08
2022-08-26T15:29:17.333Z,1.50
2022-08-26T15:31:45.469Z,3.17
2022-08-26T15:34:16.645Z,2.20
2022-08-26T15:36:46.360Z,1.33
2022-08-26T15:39:16.046Z,1.20
2022-08-26T15:41:45.760Z,0.95
2022-08-26T15:44:19.175Z,1.23
2022-08-26T15:46:49.151Z,1.30
2022-08-26T15:49:18.781Z,1.50
2022-08-26T15:51:48.152Z,1.38
2022-08-26T15:54:17.515Z,1.02
2022-08-26T15:56:48.257Z,1.08
2022-08-26T15:59:16.557Z,1.00
2022-08-26T16:01:44.866Z,1.38
2022-08-26T16:04:14.875Z,1.10
2022-08-26T16:06:44.287Z,1.17
2022-08-26T16:09:13.445Z,0.90
2022-08-26T16:11:42.049Z,0.80
2022-08-26T16:14:10.622Z,1.13
2022-08-26T16:16:40.672Z,0.88
2022-08-26T16:19:12.726Z,0.90
2022-08-26T16:21:43.088Z,0.80
2022-08-26T16:24:11.636Z,0.80
2022-08-26T16:26:49.165Z,1.00
2022-08-26T16:29:19.044Z,1.20
2022-08-26T16:31:50.916Z,0.90
2022-08-26T16:34:21.991Z,0.90
2022-08-26T16:36:51.619Z,0.85
2022-08-26T16:39:20.137Z,0.80
2022-08-26T16:41:48.357Z,0.80
2022-08-26T16:44:16.833Z,1.65
2022-08-26T16:46:46.047Z,1.40
2022-08-26T16:49:14.246Z,1.38
2022-08-26T16:51:42.728Z,1.70
2022-08-26T16:54:12.502Z,1.45
2022-08-26T16:56:41.049Z,1.70
2022-08-26T16:59:11.945Z,1.00
2022-08-26T17:01:40.358Z,1.00
2022-08-26T17:04:08.960Z,1.27
2022-08-26T17:06:38.346Z,1.27
2022-08-26T17:09:06.913Z,1.40
2022-08-26T17:11:37.114Z,1.88
2022-08-26T17:14:12.048Z,1.63
2022-08-26T17:16:47.611Z,1.85
2022-08-26T17:19:40.960Z,1.88
2022-08-26T17:22:32.729Z,1.88
2022-08-26T17:25:03.243Z,1.48
2022-08-26T17:27:33.371Z,1.30
2022-08-26T17:30:01.793Z,1.40
2022-08-26T17:32:29.979Z,2.45
2022-08-26T17:34:58.281Z,3.25
2022-08-26T17:37:26.872Z,5.57
2022-08-26T17:39:55.795Z,4.53
2022-08-26T17:42:31.431Z,4.03
2022-08-26T17:45:03.070Z,3.55
2022-08-26T17:47:31.599Z,3.30
2022-08-26T17:50:01.097Z,1.95
2022-08-26T17:52:29.740Z,1.80
2022-08-26T17:55:11.906Z,1.33
2022-08-26T17:57:42.315Z,1.38
2022-08-26T18:03:17.551Z,1.40
2022-08-26T18:06:02.495Z,1.60
2022-08-26T18:08:59.957Z,1.77
2022-08-26T18:12:05.069Z,2.08
2022-08-26T18:14:42.796Z,1.48
2022-08-26T18:17:21.220Z,1.30
2022-08-26T18:19:56.772Z,1.70
2022-08-26T18:22:58.072Z,1.52
2022-08-26T18:28:57.899Z,1.15
2022-08-26T18:32:09.680Z,1.60
2022-08-26T18:35:20.483Z,1.20
2022-08-26T18:38:02.818Z,1.10
2022-08-26T18:41:01.814Z,1.20
2022-08-26T18:47:08.644Z,1.43
2022-08-26T18:50:01.055Z,0.95
2022-08-26T18:52:29.086Z,1.07
2022-08-26T18:54:56.900Z,1.02
2022-08-26T18:57:24.850Z,1.33
2022-08-26T18:59:52.756Z,1.40
2022-08-26T19:02:20.819Z,1.33
2022-08-26T19:04:51.815Z,1.00
2022-08-26T19:07:21.009Z,1.30
2022-08-26T19:09:54.111Z,1.30
2022-08-26T19:12:22.241Z,1.10
2022-08-26T19:14:54.800Z,1.00
2022-08-26T19:17:22.757Z,1.50
2022-08-26T19:19:53.658Z,1.20
2022-08-26T19:22:22.691Z,1.20
2022-08-26T19:24:51.095Z,1.20
2022-08-26T19:27:19.182Z,1.53
2022-08-26T19:29:47.815Z,1.20
2022-08-26T19:32:17.152Z,1.10
2022-08-26T19:34:45.649Z,1.13
2022-08-26T19:37:14.950Z,1.00
2022-08-26T19:39:42.847Z,1.20
2022-08-26T19:42:10.804Z,1.17
2022-08-26T19:44:55.869Z,1.00
2022-08-26T19:47:23.812Z,1.20
2022-08-26T19:49:54.607Z,1.00
2022-08-26T19:52:25.820Z,1.30
2022-08-26T19:54:58.185Z,1.20
2022-08-26T19:57:26.090Z,1.30
2022-08-26T19:59:53.850Z,1.10
2022-08-26T20:02:21.730Z,1.17
2022-08-26T20:04:49.934Z,1.40
2022-08-26T20:07:18.876Z,1.10
2022-08-26T20:09:50.499Z,1.43
2022-08-26T20:12:19.048Z,1.50
2022-08-26T20:14:46.905Z,1.50
2022-08-26T20:17:17.045Z,1.20
2022-08-26T20:20:02.563Z,1.43
2022-08-26T20:22:30.925Z,1.40
2022-08-26T20:25:00.448Z,1.30
2022-08-26T20:27:34.375Z,1.03
2022-08-26T20:30:08.368Z,1.13
2022-08-26T20:32:36.387Z,1.13
2022-08-26T20:35:07.164Z,1.17
2022-08-26T20:37:35.640Z,1.40
2022-08-26T20:40:06.519Z,1.10
2022-08-26T20:42:34.512Z,1.13
2022-08-26T20:45:03.294Z,1.30
2022-08-26T20:47:31.149Z,1.20
2022-08-26T20:49:59.180Z,1.33
2022-08-26T20:52:27.520Z,1.00
2022-08-26T20:54:55.611Z,1.30
2022-08-26T20:57:24.937Z,2.13
2022-08-26T20:59:53.340Z,2.70
2022-08-26T21:02:21.314Z,2.17
2022-08-26T21:04:49.185Z,1.90
2022-08-26T21:07:17.048Z,1.33
2022-08-26T21:09:45.928Z,0.83
2022-08-26T21:12:13.783Z,1.40
2022-08-26T21:14:46.637Z,1.00
2022-08-26T21:17:16.800Z,1.60
2022-08-26T21:19:44.604Z,1.70
2022-08-26T21:22:12.590Z,1.73
2022-08-26T21:24:40.378Z,1.90
2022-08-26T21:27:08.213Z,1.40
2022-08-26T21:29:37.044Z,1.20
2022-08-26T21:32:07.037Z,1.03
2022-08-26T21:34:35.034Z,1.10
2022-08-26T21:37:13.301Z,1.27
2022-08-26T21:39:45.679Z,1.10
2022-08-26T21:42:13.863Z,1.17
2022-08-26T21:44:42.391Z,1.30
2022-08-26T21:47:11.906Z,1.20
2022-08-26T21:49:41.134Z,1.20
2022-08-26T21:52:08.846Z,1.17
2022-08-26T21:54:36.636Z,1.40
2022-08-26T21:57:05.123Z,1.57
2022-08-26T21:59:32.986Z,1.23
2022-08-26T22:02:01.037Z,1.30
2022-08-26T22:04:30.382Z,1.50
2022-08-26T22:06:58.928Z,1.30
2022-08-26T22:09:29.024Z,1.03
2022-08-26T22:11:57.596Z,1.33
2022-08-26T22:14:30.509Z,1.70
2022-08-26T22:17:00.027Z,1.33
2022-08-26T22:19:27.920Z,1.40
2022-08-26T22:21:57.335Z,1.23
2022-08-26T22:24:27.113Z,1.47
2022-08-26T22:26:56.576Z,1.30
2022-08-26T22:29:25.155Z,1.50
2022-08-26T22:31:53.101Z,1.57
2022-08-26T22:34:23.060Z,1.17
2022-08-26T22:36:51.430Z,1.20
2022-08-26T22:39:22.920Z,1.50
2022-08-26T22:41:51.321Z,1.40
2022-08-26T22:44:20.436Z,1.13
2022-08-26T22:46:49.806Z,1.43
2022-08-26T22:49:17.871Z,1.30
2022-08-26T22:51:46.902Z,1.20
2022-08-26T22:54:15.401Z,1.40
2022-08-26T22:56:45.228Z,1.30
2022-08-26T22:59:13.887Z,1.17
2022-08-26T23:01:44.011Z,1.20
2022-08-26T23:04:12.334Z,1.20
2022-08-26T23:06:43.048Z,1.40
2022-08-26T23:09:11.300Z,1.37
2022-08-26T23:11:42.481Z,1.27
2022-08-26T23:14:12.080Z,1.00
2022-08-26T23:16:42.393Z,1.50
2022-08-26T23:19:10.824Z,1.50
2022-08-26T23:21:39.297Z,1.40
2022-08-26T23:24:08.606Z,1.40
2022-08-26T23:26:37.059Z,1.60
2022-08-26T23:29:06.064Z,1.10
2022-08-26T23:31:35.415Z,1.50
2022-08-26T23:34:20.536Z,1.50
2022-08-26T23:36:48.388Z,1.53
2022-08-26T23:39:16.409Z,1.20
2022-08-26T23:41:44.222Z,1.40
2022-08-26T23:44:12.508Z,1.47
2022-08-26T23:46:41.680Z,1.73
2022-08-26T23:49:09.894Z,1.87
2022-08-26T23:51:56.737Z,1.43
2022-08-26T23:54:24.528Z,1.37
2022-08-26T23:56:52.333Z,1.60
2022-08-26T23:59:20.488Z,1.60
